Time;durP1;ratioP1;P1;durP2;ratioP2;P2;SDS_P1;SDS_P2;PMS_P1;PMS_P2;Temp;Humidity;BMP_temperature;BMP_pressure;BME280_temperature;BME280_humidity;BME280_pressure;Samples;Min_cycle;Max_cycle;Signal;HPM_P1;HPM_P2
2022/09/04 03:10:02;;;;;;;3.88;2.40;;;;;;;19.46;39.49;100478.25;10324141;24;20261;-80
2022/09/04 03:15:29;;;;;;;3.28;2.97;;;;;;;19.12;40.12;100490.97;10032602;29;20234;-80
2022/09/04 03:21:05;;;;;;;3.13;2.83;;;;;;;19.63;39.16;100491.13;10046121;29;20470;-81
2022/09/04 03:26:34;;;;;;;5.65;3.58;;;;;;;19.44;39.18;100497.84;10022944;29;20631;-81
2022/09/04 03:32:11;;;;;;;3.92;2.90;;;;;;;19.16;40.08;100500.38;10033722;29;20202;-80
2022/09/04 03:37:49;;;;;;;3.58;2.65;;;;;;;19.55;39.39;100498.75;10061944;29;20250;-81
2022/09/04 03:43:41;;;;;;;5.18;2.58;;;;;;;19.12;40.21;100503.22;10035110;29;20202;-81
2022/09/04 03:49:26;;;;;;;3.23;2.83;;;;;;;19.28;40.02;100503.78;10038964;29;20260;-81
2022/09/04 03:55:22;;;;;;;4.63;2.55;;;;;;;19.29;39.70;100508.28;10040665;29;20210;-81
2022/09/04 04:00:59;;;;;;;4.20;2.80;;;;;;;19.21;39.83;100512.28;10030061;29;20695;-80
2022/09/04 04:06:34;;;;;;;5.78;2.78;;;;;;;19.39;39.75;100501.88;10026610;29;20314;-80
2022/09/04 04:12:24;;;;;;;4.20;3.10;;;;;;;19.00;40.76;100504.28;10000338;29;20558;-81
2022/09/04 04:18:15;;;;;;;3.70;2.90;;;;;;;18.86;40.80;100501.25;10002813;29;20640;-81
2022/09/04 04:24:13;;;;;;;4.85;3.60;;;;;;;19.02;40.47;100513.28;10002988;29;20227;-80
2022/09/04 04:29:45;;;;;;;3.05;2.75;;;;;;;19.28;40.36;100517.25;9994841;29;20265;-80
2022/09/04 04:35:16;;;;;;;3.35;2.85;;;;;;;19.30;39.87;100520.53;10008209;29;20199;-80
2022/09/04 04:41:03;;;;;;;3.67;3.03;;;;;;;18.99;40.63;100528.38;10008221;29;20284;-80
2022/09/04 04:46:33;;;;;;;4.47;2.80;;;;;;;18.60;41.21;100539.22;10015487;29;20708;-80
2022/09/04 04:51:58;;;;;;;3.13;2.63;;;;;;;18.86;40.49;100538.38;10003766;29;20223;-80
2022/09/04 04:57:39;;;;;;;6.22;2.67;;;;;;;18.66;40.94;100553.97;10022993;29;20582;-80
2022/09/04 05:03:31;;;;;;;3.22;2.92;;;;;;;18.66;40.91;100565.41;9994779;29;20307;-80
2022/09/04 05:09:22;;;;;;;4.40;2.50;;;;;;;18.67;41.21;100567.03;9996809;29;20725;-80
2022/09/04 05:15:07;;;;;;;3.47;3.17;;;;;;;18.31;42.24;100559.97;10019895;29;20199;-80
2022/09/04 05:20:45;;;;;;;3.78;3.00;;;;;;;18.70;41.50;100574.84;10006266;29;20207;-80
2022/09/04 05:26:23;;;;;;;3.67;2.60;;;;;;;18.67;41.78;100590.72;10009678;29;20215;-81
2022/09/04 05:31:52;;;;;;;4.25;3.20;;;;;;;19.13;40.81;100590.59;9999985;29;20660;-80
2022/09/04 05:37:36;;;;;;;4.27;3.07;;;;;;;19.31;40.57;100596.50;9984866;29;20245;-80
2022/09/04 05:43:20;;;;;;;4.93;3.70;;;;;;;19.30;40.49;100609.97;9992886;29;20268;-80
2022/09/04 05:49:07;;;;;;;3.03;2.67;;;;;;;19.49;40.16;100611.84;9987244;29;20263;-80
2022/09/04 05:54:52;;;;;;;4.40;3.38;;;;;;;19.61;40.26;100620.19;10008825;29;20231;-81
2022/09/04 06:00:17;;;;;;;4.90;3.27;;;;;;;19.80;39.81;100621.19;9993510;29;20616;-82
2022/09/04 06:06:24;;;;;;;4.47;3.05;;;;;;;19.65;39.97;100626.75;9990207;29;20258;-81
2022/09/04 06:12:11;;;;;;;3.95;3.47;;;;;;;20.18;39.10;100632.25;9996111;29;20215;-85
2022/09/04 06:17:46;;;;;;;3.47;3.17;;;;;;;20.16;39.17;100637.53;10017677;29;20260;-84
2022/09/04 06:23:24;;;;;;;4.13;3.58;;;;;;;19.99;40.10;100655.34;10001371;29;20233;-84
2022/09/04 06:28:52;;;;;;;6.80;3.55;;;;;;;20.49;39.11;100645.22;9995502;29;20223;-85
2022/09/04 06:34:52;;;;;;;4.18;3.78;;;;;;;20.95;38.29;100648.44;10008300;29;20624;-84
2022/09/04 06:40:27;;;;;;;4.32;3.30;;;;;;;20.83;39.16;100647.94;10023626;29;20256;-84
2022/09/04 06:46:05;;;;;;;3.88;3.10;;;;;;;20.88;39.25;100651.25;10024468;29;20513;-85
2022/09/04 06:51:51;;;;;;;4.15;3.22;;;;;;;21.14;39.11;100645.28;9981059;29;20268;-85
2022/09/04 06:57:22;;;;;;;4.22;2.72;;;;;;;21.21;39.67;100653.13;10006140;29;20259;-84
2022/09/04 07:03:18;;;;;;;4.97;3.30;;;;;;;21.83;38.44;100650.94;10002300;29;20234;-84
2022/09/04 07:08:44;;;;;;;3.08;2.40;;;;;;;21.65;39.55;100650.06;10014015;29;20724;-83
2022/09/04 07:14:18;;;;;;;2.63;2.00;;;;;;;20.63;42.18;100667.41;10013895;29;20207;-84
2022/09/04 07:19:52;;;;;;;2.30;2.00;;;;;;;20.73;42.08;100666.66;10017128;29;20279;-84
2022/09/04 07:25:25;;;;;;;2.15;1.98;;;;;;;20.70;43.00;100674.00;10008531;29;20632;-83
2022/09/04 07:31:04;;;;;;;2.05;1.90;;;;;;;21.88;41.10;100666.09;10004444;29;20231;-82
2022/09/04 07:36:48;;;;;;;2.00;1.90;;;;;;;21.69;41.16;100662.38;10002468;29;20287;-83
2022/09/04 07:42:14;;;;;;;2.20;2.00;;;;;;;23.05;38.92;100672.78;10004334;29;20234;-82
2022/09/04 07:47:54;;;;;;;2.67;2.38;;;;;;;20.91;43.58;100687.72;9993094;29;20231;-83
2022/09/04 07:53:45;;;;;;;2.15;1.80;;;;;;;22.32;40.76;100683.06;10005053;29;20199;-83
2022/09/04 07:59:24;;;;;;;4.90;2.35;;;;;;;23.56;38.83;100691.56;10004631;29;20251;-81
2022/09/04 08:05:35;;;;;;;2.47;2.05;;;;;;;22.50;40.49;100707.72;10018446;29;20326;-81
2022/09/04 08:11:16;;;;;;;1.98;1.77;;;;;;;23.20;39.90;100706.06;9866269;30;20233;-81
2022/09/04 08:17:19;;;;;;;1.92;1.65;;;;;;;23.15;39.88;100708.56;10016433;29;20212;-81
2022/09/04 08:22:47;;;;;;;1.65;1.55;;;;;;;23.74;38.74;100709.63;9989855;29;20727;-82
2022/09/04 08:28:20;;;;;;;2.63;1.90;;;;;;;23.40;39.34;100708.50;9988962;29;20644;-83
2022/09/04 08:34:01;;;;;;;3.08;2.00;;;;;;;24.10;37.04;100710.28;9976882;29;20239;-83
2022/09/04 08:39:29;;;;;;;1.98;1.77;;;;;;;24.13;38.41;100712.31;9987172;29;20208;-82
2022/09/04 08:45:06;;;;;;;2.03;1.77;;;;;;;24.39;36.85;100715.88;9998661;29;20581;-84
2022/09/04 08:50:45;;;;;;;2.88;1.80;;;;;;;24.01;37.94;100723.50;9983558;29;20247;-82
2022/09/04 08:56:12;;;;;;;3.17;2.45;;;;;;;24.84;36.78;100716.81;9980616;29;20256;-82
2022/09/04 09:01:44;;;;;;;2.90;2.10;;;;;;;25.47;35.58;100717.44;9986443;29;20203;-81
2022/09/04 09:07:12;;;;;;;3.45;2.20;;;;;;;25.20;36.41;100718.13;10010355;29;20310;-82
2022/09/04 09:12:54;;;;;;;3.22;1.95;;;;;;;23.68;37.62;100725.69;10054841;29;20553;-82
2022/09/04 09:19:01;;;;;;;2.38;2.17;;;;;;;24.22;36.88;100720.50;10061200;29;20230;-82
2022/09/04 09:24:46;;;;;;;2.78;2.00;;;;;;;24.83;35.88;100723.81;10039028;29;20243;-82
2022/09/04 09:30:08;;;;;;;3.38;2.25;;;;;;;24.83;36.67;100729.59;10042230;29;20202;-82
2022/09/04 09:35:53;;;;;;;2.25;2.05;;;;;;;25.66;35.52;100711.03;10054237;29;20198;-83
2022/09/04 09:41:41;;;;;;;5.53;2.28;;;;;;;25.62;34.23;100716.03;10045834;29;20230;-82
2022/09/04 09:47:12;;;;;;;4.68;2.13;;;;;;;25.56;34.20;100711.97;10044506;29;20254;-83
2022/09/04 09:53:02;;;;;;;4.28;2.83;;;;;;;25.76;34.98;100707.19;10057767;29;20198;-83
2022/09/04 09:59:08;;;;;;;3.75;2.88;;;;;;;26.11;33.51;100708.81;10057334;29;20198;-83
2022/09/04 10:04:59;;;;;;;2.90;2.70;;;;;;;25.20;34.64;100711.53;10037188;29;20207;-84
2022/09/04 10:10:52;;;;;;;3.70;2.47;;;;;;;26.67;33.03;100695.56;10058171;29;20266;-82
2022/09/04 10:16:34;;;;;;;3.90;2.65;;;;;;;24.79;36.37;100711.50;10043175;29;20230;-81
2022/09/04 10:22:07;;;;;;;4.60;2.30;;;;;;;26.08;34.62;100708.84;10058343;29;20194;-82
2022/09/04 10:27:47;;;;;;;3.75;3.05;;;;;;;25.96;34.28;100713.97;10057511;29;20490;-82
2022/09/04 10:33:13;;;;;;;2.42;2.20;;;;;;;26.68;33.24;100708.75;10060971;29;20262;-82
2022/09/04 10:44:29;;;;;;;3.55;2.70;;;;;;;26.58;33.14;100714.72;10024740;29;20271;-81
2022/09/04 10:50:15;;;;;;;2.13;1.95;;;;;;;26.52;32.17;100716.50;10048401;29;20603;-81
2022/09/04 10:56:08;;;;;;;2.33;2.10;;;;;;;27.07;31.92;100704.41;10050968;29;20266;-83
2022/09/04 11:01:59;;;;;;;3.20;2.03;;;;;;;27.91;31.10;100703.19;10043069;29;20274;-84
2022/09/04 11:07:25;;;;;;;4.40;2.50;;;;;;;27.17;31.39;100711.28;9980494;29;20317;-82
2022/09/04 11:12:59;;;;;;;3.45;2.30;;;;;;;27.92;30.00;100694.06;10050219;29;20228;-81
2022/09/04 11:18:37;;;;;;;3.67;2.53;;;;;;;27.50;31.57;100700.72;10048456;29;20259;-82
2022/09/04 11:24:12;;;;;;;3.88;2.13;;;;;;;27.16;31.38;100698.88;10054036;29;20238;-81
2022/09/04 11:30:05;;;;;;;3.42;1.98;;;;;;;26.45;31.01;100705.84;10041880;29;20303;-82
2022/09/04 11:35:44;;;;;;;4.57;2.55;;;;;;;27.77;29.37;100692.75;10029065;29;20274;-83
2022/09/04 11:41:42;;;;;;;2.50;2.30;;;;;;;28.22;28.88;100683.47;10042255;29;20295;-83
2022/09/04 11:47:22;;;;;;;2.72;2.15;;;;;;;28.44;28.56;100699.09;10040685;29;20797;-82
2022/09/04 11:53:13;;;;;;;2.22;1.77;;;;;;;28.27;28.76;100691.63;10048627;29;20266;-85
2022/09/04 11:59:05;;;;;;;2.38;1.92;;;;;;;28.77;28.99;100697.88;10046679;29;20230;-81
2022/09/04 12:04:52;;;;;;;2.28;2.10;;;;;;;28.28;28.55;100693.28;10053551;29;20234;-84
2022/09/04 12:10:35;;;;;;;1.75;1.65;;;;;;;28.07;28.75;100691.66;10030213;29;20685;-81
2022/09/04 12:16:16;;;;;;;2.83;2.00;;;;;;;27.27;30.08;100705.31;10019849;29;20298;-82
2022/09/04 12:22:03;;;;;;;2.22;2.00;;;;;;;26.71;31.23;100702.13;10036502;29;20271;-82
2022/09/04 12:27:37;;;;;;;2.10;1.80;;;;;;;27.57;30.82;100712.19;10030203;29;20326;-81
2022/09/04 12:33:21;;;;;;;1.85;1.70;;;;;;;27.64;30.06;100709.13;10046368;29;20242;-81
2022/09/04 12:39:05;;;;;;;3.63;1.70;;;;;;;28.59;28.06;100708.28;10041225;29;20278;-84
2022/09/04 12:44:46;;;;;;;4.13;3.75;;;;;;;28.03;28.33;100705.41;10024152;29;20311;-81
2022/09/04 12:50:17;;;;;;;2.33;2.13;;;;;;;27.75;28.79;100695.25;10037982;29;20258;-83
2022/09/04 12:55:51;;;;;;;2.97;2.67;;;;;;;28.85;26.98;100705.13;10022354;29;20238;-83
2022/09/04 13:01:20;;;;;;;2.53;2.20;;;;;;;28.08;28.69;100708.63;10030872;29;20238;-82
2022/09/04 13:07:10;;;;;;;3.15;1.67;;;;;;;27.88;29.25;100710.69;10013933;29;20317;-84
2022/09/04 13:12:32;;;;;;;2.67;1.48;;;;;;;28.11;28.12;100713.47;10014316;29;20334;-82
2022/09/04 13:18:16;;;;;;;2.15;1.95;;;;;;;27.85;28.64;100717.38;10044717;29;20226;-86
2022/09/04 13:23:48;;;;;;;2.72;1.48;;;;;;;28.42;28.71;100713.22;10016641;29;20253;-82
2022/09/04 13:29:34;;;;;;;1.95;1.70;;;;;;;28.25;28.49;100717.34;10033947;29;20313;-83
2022/09/04 13:35:11;;;;;;;2.65;1.70;;;;;;;29.24;27.63;100709.13;10018189;29;20234;-81
2022/09/04 13:40:41;;;;;;;1.38;1.27;;;;;;;28.95;27.15;100714.00;10019586;29;20226;-82
2022/09/04 13:46:15;;;;;;;2.30;1.67;;;;;;;28.44;27.58;100711.53;10013683;29;20257;-82
2022/09/04 13:51:44;;;;;;;2.78;1.38;;;;;;;28.98;26.71;100716.81;10018024;29;20856;-79
2022/09/04 13:57:13;;;;;;;1.60;1.52;;;;;;;27.68;29.42;100718.56;10015553;29;20684;-81
2022/09/04 14:02:35;;;;;;;1.92;1.25;;;;;;;28.13;27.95;100722.56;10029225;29;20234;-82
2022/09/04 14:08:02;;;;;;;3.78;1.90;;;;;;;28.45;27.62;100715.22;10014489;29;20275;-83
2022/09/04 14:13:35;;;;;;;1.92;1.25;;;;;;;29.49;25.56;100720.03;10014411;29;20242;-84
2022/09/04 14:19:30;;;;;;;2.20;0.85;;;;;;;29.33;25.49;100717.97;10014340;29;20291;-84
2022/09/04 14:25:04;;;;;;;2.35;1.63;;;;;;;29.09;27.25;100720.25;10042236;29;20290;-84
2022/09/04 14:30:27;;;;;;;1.85;1.20;;;;;;;29.64;26.43;100714.66;10050332;29;20250;-83
2022/09/04 14:36:08;;;;;;;1.70;1.60;;;;;;;28.59;28.83;100720.69;10037350;29;20242;-84
2022/09/04 14:41:55;;;;;;;2.17;1.40;;;;;;;28.92;27.40;100720.72;10058440;29;20291;-84
2022/09/04 14:47:20;;;;;;;1.30;1.20;;;;;;;29.47;25.97;100717.56;10049795;29;20627;-84
2022/09/04 14:53:04;;;;;;;1.38;1.10;;;;;;;28.69;27.22;100721.69;10036160;29;20226;-82
2022/09/04 14:59:07;;;;;;;1.13;1.00;;;;;;;28.94;26.20;100721.09;10041171;29;20278;-82
2022/09/04 15:04:33;;;;;;;2.30;1.58;;;;;;;28.85;27.07;100724.63;10036441;29;20241;-80
2022/09/04 15:10:10;;;;;;;1.15;1.00;;;;;;;29.61;26.60;100707.63;9978465;29;20298;-81
2022/09/04 15:15:50;;;;;;;2.70;1.08;;;;;;;29.02;26.39;100723.34;9978127;29;20613;-81
2022/09/04 15:21:24;;;;;;;2.22;1.00;;;;;;;28.79;27.61;100724.34;9967715;29;20265;-80
2022/09/04 15:26:54;;;;;;;1.20;0.95;;;;;;;28.23;27.69;100725.69;9958530;29;20311;-81
2022/09/04 15:32:25;;;;;;;1.52;1.25;;;;;;;28.31;27.26;100721.38;9993175;29;20304;-81
2022/09/04 15:37:50;;;;;;;4.35;1.75;;;;;;;28.71;26.95;100728.72;9981926;29;20369;-83
2022/09/04 15:43:21;;;;;;;1.52;1.13;;;;;;;28.89;26.16;100724.53;9978746;29;20248;-80
2022/09/04 15:48:52;;;;;;;3.78;1.42;;;;;;;29.44;25.86;100724.28;9964583;29;20268;-81
2022/09/04 15:54:28;;;;;;;2.00;1.50;;;;;;;29.29;26.28;100723.06;9941208;29;20295;-81
2022/09/04 16:00:11;;;;;;;3.53;1.60;;;;;;;29.26;26.02;100724.00;9963805;29;20227;-80
2022/09/04 16:05:46;;;;;;;2.75;1.33;;;;;;;29.10;26.24;100721.06;9957289;29;20657;-80
2022/09/04 16:11:24;;;;;;;1.70;1.20;;;;;;;29.22;26.98;100717.47;9963927;29;20232;-81
2022/09/04 16:16:54;;;;;;;2.40;0.95;;;;;;;28.17;27.87;100723.28;9937934;29;20284;-81
2022/09/04 16:22:25;;;;;;;2.63;1.45;;;;;;;27.79;28.34;100730.78;9957926;29;20697;-81
2022/09/04 16:28:01;;;;;;;2.25;1.10;;;;;;;27.96;28.22;100729.59;9946318;29;20348;-84
2022/09/04 16:33:30;;;;;;;1.20;1.15;;;;;;;28.44;27.16;100731.81;9955927;29;20239;-84
2022/09/04 16:38:58;;;;;;;1.25;0.75;;;;;;;28.28;28.17;100728.88;9968542;29;20277;-82
2022/09/04 16:44:31;;;;;;;1.33;1.20;;;;;;;28.32;27.89;100725.91;9965606;29;20261;-83
2022/09/04 16:50:00;;;;;;;2.63;1.45;;;;;;;27.75;29.19;100730.00;9977943;29;20242;-82
2022/09/04 16:55:30;;;;;;;3.55;1.50;;;;;;;27.97;28.99;100725.38;9954904;29;20240;-82
2022/09/04 17:00:59;;;;;;;1.73;1.63;;;;;;;27.67;29.62;100734.31;9953518;29;20877;-82
2022/09/04 17:06:30;;;;;;;3.20;1.80;;;;;;;27.82;29.41;100734.84;9978648;29;20279;-82
2022/09/04 17:11:57;;;;;;;1.63;1.35;;;;;;;27.62;30.16;100737.69;9978677;29;20224;-80
2022/09/04 17:17:21;;;;;;;5.88;1.92;;;;;;;27.55;30.07;100737.84;9979547;29;20280;-81
2022/09/04 17:22:54;;;;;;;1.88;1.45;;;;;;;26.87;31.14;100738.25;9979990;29;20227;-82
2022/09/04 17:28:40;;;;;;;2.97;1.67;;;;;;;27.23;31.19;100739.25;9983321;29;20632;-81
2022/09/04 17:34:45;;;;;;;2.80;1.60;;;;;;;26.87;31.24;100744.84;10015736;29;20745;-80
2022/09/04 17:40:33;;;;;;;4.03;2.13;;;;;;;27.83;30.46;100736.50;9976568;29;20768;-80
2022/09/04 17:46:15;;;;;;;5.63;2.50;;;;;;;27.77;30.66;100736.19;9981267;29;20307;-81
2022/09/04 17:51:37;;;;;;;3.15;2.08;;;;;;;27.77;30.64;100733.28;9996616;29;20706;-80
2022/09/04 17:57:08;;;;;;;5.95;3.22;;;;;;;27.67;31.18;100734.31;9988922;29;20234;-81
2022/09/04 18:02:41;;;;;;;5.55;2.58;;;;;;;27.44;32.00;100738.84;9998311;29;20243;-82
2022/09/04 18:08:10;;;;;;;6.07;3.58;;;;;;;27.37;32.09;100736.13;9989554;29;20315;-84
2022/09/04 18:13:47;;;;;;;2.42;2.22;;;;;;;27.09;32.90;100749.00;9983195;29;20239;-82
2022/09/04 18:19:15;;;;;;;2.97;2.50;;;;;;;27.06;33.41;100751.94;9979960;29;20291;-81
2022/09/04 18:25:02;;;;;;;4.90;2.90;;;;;;;25.92;35.21;100764.34;10005369;29;20808;-81
2022/09/04 18:30:24;;;;;;;5.70;3.42;;;;;;;26.41;34.57;100757.91;10025034;29;20882;-81
2022/09/04 18:36:22;;;;;;;5.22;3.10;;;;;;;26.51;34.43;100767.72;10005294;29;20362;-81
2022/09/04 18:41:47;;;;;;;5.80;3.10;;;;;;;26.49;34.64;100773.09;9956316;29;20673;-82
2022/09/04 18:47:21;;;;;;;10.50;8.65;;;;;;;26.36;34.41;100783.63;10013124;29;20637;-81
2022/09/04 18:52:54;;;;;;;3.90;3.20;;;;;;;26.44;34.83;100778.53;10005167;29;20288;-81
2022/09/04 18:58:50;;;;;;;4.72;2.80;;;;;;;26.57;34.12;100791.16;10012475;29;20681;-81
2022/09/04 19:04:31;;;;;;;7.70;3.17;;;;;;;26.11;35.03;100806.22;10014216;29;20246;-81
2022/09/04 19:10:00;;;;;;;6.10;3.00;;;;;;;26.11;34.97;100807.03;10019629;29;20255;-81
2022/09/04 19:15:38;;;;;;;3.92;2.92;;;;;;;24.62;37.92;100814.94;10011619;29;20292;-80
2022/09/04 19:21:07;;;;;;;6.55;3.15;;;;;;;24.92;37.48;100817.25;9972487;29;20291;-81
2022/09/04 19:26:51;;;;;;;4.72;3.60;;;;;;;24.88;37.50;100815.63;10002213;29;20243;-81
2022/09/04 19:32:21;;;;;;;7.18;3.33;;;;;;;25.52;36.45;100807.25;10019139;29;20238;-81
2022/09/04 19:37:52;;;;;;;6.70;3.67;;;;;;;25.61;36.43;100818.31;10005728;29;20219;-81
2022/09/04 19:43:18;;;;;;;6.75;3.45;;;;;;;25.55;36.27;100820.03;10020953;29;20231;-81
2022/09/04 19:49:17;;;;;;;4.55;3.83;;;;;;;25.10;37.17;100817.13;9999017;29;20250;-80
2022/09/04 19:54:42;;;;;;;5.43;3.80;;;;;;;25.23;37.12;100812.47;9994658;29;20665;-80
2022/09/04 20:00:11;;;;;;;5.85;4.25;;;;;;;25.44;36.93;100819.31;10012100;29;20287;-81
2022/09/04 20:05:36;;;;;;;4.13;3.53;;;;;;;25.18;36.79;100833.09;10012681;29;20339;-81
2022/09/04 20:11:09;;;;;;;4.20;3.80;;;;;;;25.41;36.78;100825.94;9980837;29;20638;-81
2022/09/04 20:16:39;;;;;;;5.95;3.38;;;;;;;24.99;37.02;100833.66;9965653;29;20232;-82
2022/09/04 20:22:14;;;;;;;4.97;3.70;;;;;;;24.94;37.65;100829.19;9962346;29;20247;-82
2022/09/04 20:27:46;;;;;;;7.03;3.85;;;;;;;24.87;37.44;100832.09;9969400;29;20308;-81
2022/09/04 20:33:22;;;;;;;5.15;3.70;;;;;;;24.89;37.50;100834.56;9982023;29;20272;-81
2022/09/04 20:38:56;;;;;;;5.25;3.45;;;;;;;24.77;37.86;100832.19;9979299;29;20235;-81
2022/09/04 20:44:27;;;;;;;4.45;3.40;;;;;;;24.55;38.15;100826.53;9967263;29;20513;-81
2022/09/04 20:49:53;;;;;;;6.18;3.85;;;;;;;24.33;38.00;100830.75;9964297;29;20634;-81
2022/09/04 20:55:28;;;;;;;4.25;3.33;;;;;;;24.02;38.96;100841.16;9987934;29;20279;-81
2022/09/04 21:01:04;;;;;;;3.42;3.13;;;;;;;24.03;38.58;100836.22;9965961;29;20207;-81
2022/09/04 21:06:28;;;;;;;5.82;3.33;;;;;;;24.15;38.65;100844.38;10009141;29;20239;-81
2022/09/04 21:11:54;;;;;;;4.05;3.60;;;;;;;23.90;38.95;100847.34;10043633;29;20509;-80
2022/09/04 21:17:30;;;;;;;6.57;3.95;;;;;;;23.64;38.96;100853.53;10046913;29;20485;-81
2022/09/04 21:23:23;;;;;;;3.83;3.53;;;;;;;23.89;38.74;100845.72;10058459;29;20202;-81
2022/09/04 21:29:03;;;;;;;5.15;3.28;;;;;;;23.61;39.50;100852.31;10047104;29;20214;-80
2022/09/04 21:34:44;;;;;;;3.70;3.40;;;;;;;23.61;39.20;100858.06;10046756;29;20305;-81
2022/09/04 21:40:27;;;;;;;3.17;2.88;;;;;;;23.35;39.16;100855.63;10046448;29;20267;-81
2022/09/04 21:46:23;;;;;;;3.40;3.10;;;;;;;23.41;38.84;100853.97;10033418;29;20415;-80
2022/09/04 21:52:07;;;;;;;3.75;3.42;;;;;;;23.63;38.66;100864.22;10040920;29;20631;-81
2022/09/04 21:57:42;;;;;;;4.22;3.33;;;;;;;23.62;38.85;100871.22;10044508;29;20274;-81
2022/09/04 22:03:18;;;;;;;3.58;3.10;;;;;;;23.27;39.11;100865.50;10032105;29;20206;-80
2022/09/04 22:08:58;;;;;;;4.25;3.65;;;;;;;22.41;40.89;100870.16;10059388;29;20305;-80
2022/09/04 22:14:48;;;;;;;5.18;3.80;;;;;;;23.20;39.37;100864.25;10059562;29;20258;-81
2022/09/04 22:20:53;;;;;;;4.82;3.75;;;;;;;23.29;39.07;100871.66;10030092;29;20207;-81
2022/09/04 22:26:18;;;;;;;6.15;4.32;;;;;;;22.22;41.20;100873.38;10059521;29;20722;-81
2022/09/04 22:32:19;;;;;;;5.57;3.90;;;;;;;22.11;41.88;100874.16;10040630;29;21012;-81
2022/09/04 22:37:44;;;;;;;5.13;4.53;;;;;;;21.83;43.01;100877.66;9996589;29;20267;-81
2022/09/04 22:43:22;;;;;;;4.35;3.47;;;;;;;22.38;41.62;100871.78;10048874;29;20232;-81
2022/09/04 22:48:44;;;;;;;6.20;4.22;;;;;;;22.28;41.37;100883.22;10035172;29;20251;-82
2022/09/04 22:54:37;;;;;;;5.00;4.50;;;;;;;22.25;41.65;100881.97;10044806;29;20198;-81
2022/09/04 23:00:07;;;;;;;5.35;4.65;;;;;;;22.52;41.01;100873.88;10059509;29;20195;-82
2022/09/04 23:05:47;;;;;;;5.55;4.03;;;;;;;23.13;39.97;100870.00;10051857;29;20263;-81
2022/09/04 23:12:00;;;;;;;4.72;3.90;;;;;;;22.54;41.10;100872.28;10065456;29;20278;-81
2022/09/04 23:17:44;;;;;;;5.63;4.28;;;;;;;22.49;40.82;100875.56;10044683;29;20274;-81
2022/09/04 23:23:44;;;;;;;4.45;4.00;;;;;;;22.36;41.03;100873.44;10044064;29;20692;-81
2022/09/04 23:29:53;;;;;;;5.07;3.72;;;;;;;22.97;39.58;100880.22;10060272;29;20288;-81
2022/09/04 23:35:40;;;;;;;6.97;4.55;;;;;;;22.60;40.42;100887.09;10047111;29;20273;-81
2022/09/04 23:41:06;;;;;;;4.88;3.75;;;;;;;22.65;40.30;100885.88;10047765;29;20195;-81
2022/09/04 23:46:48;;;;;;;5.38;4.03;;;;;;;22.38;40.97;100883.28;10046711;29;20492;-81
2022/09/04 23:52:20;;;;;;;4.55;4.00;;;;;;;22.62;40.32;100878.09;10022545;29;20290;-81
